Flugplatz Weißenhorn

Für EDNW sind keine METAR/TAF Berichte vorhanden.
Es werden die Flugwettermeldungen vom Flugplatz Laupheim Airport in 18 km Entfernung angezeigt.

Bericht für ETHL

vom 30.09. um 21:20 UTC

variable Windrichtung mit 2 kt

Sichtweite 2300 m

Temperatur 4.0°C

Taupunkt 4.0°C

Luftfeuchtigkeit 100%

Luftdruck 1014 hPa

ETHL 302120Z AUTO VRB02KT 2300 // ////// 04/04 Q1014 ///
Keine Prognose (TAF) verfügbar.
Impressum